Time;durP1;ratioP1;P1;durP2;ratioP2;P2;SDS_P1;SDS_P2;PMS_P1;PMS_P2;Temp;Humidity;BMP_temperature;BMP_pressure;BME280_temperature;BME280_humidity;BME280_pressure;Samples;Min_cycle;Max_cycle;Signal;HPM_P1;HPM_P2
2023/12/17 00:01:35;;;;;;;5.67;1.73;;;1.60;99.90;;;;;;5047581;28;20451;-80
2023/12/17 00:04:02;;;;;;;0.90;0.90;;;1.60;99.90;;;;;;5045596;28;20435;-79
2023/12/17 00:06:29;;;;;;;1.80;1.43;;;1.50;99.90;;;;;;5045811;28;20569;-80
2023/12/17 00:08:55;;;;;;;2.10;1.70;;;1.50;99.90;;;;;;5045428;28;20443;-80
2023/12/17 00:11:22;;;;;;;1.80;1.20;;;1.60;99.90;;;;;;5046274;28;20483;-79
2023/12/17 00:13:51;;;;;;;4.83;2.17;;;1.60;99.90;;;;;;5045500;28;20798;-79
2023/12/17 00:16:17;;;;;;;2.90;1.90;;;1.50;99.90;;;;;;5046008;28;20439;-80
2023/12/17 00:18:44;;;;;;;3.37;1.90;;;1.50;99.90;;;;;;5045718;28;20451;-79
2023/12/17 00:21:11;;;;;;;1.60;1.50;;;1.50;99.90;;;;;;5045457;28;20437;-79
2023/12/17 00:23:38;;;;;;;1.80;1.53;;;1.50;99.90;;;;;;5046428;28;20431;-79
2023/12/17 00:26:05;;;;;;;0.83;0.70;;;1.60;99.90;;;;;;5046672;28;20818;-79
2023/12/17 00:28:31;;;;;;;2.63;1.83;;;1.60;99.90;;;;;;5047926;28;20447;-80
2023/12/17 00:30:59;;;;;;;1.73;1.60;;;1.60;99.90;;;;;;5050460;28;20485;-78
2023/12/17 00:33:26;;;;;;;1.37;1.00;;;1.60;99.90;;;;;;5045482;28;20459;-79
2023/12/17 00:35:54;;;;;;;4.80;1.83;;;1.60;99.90;;;;;;5045703;28;20454;-79
2023/12/17 00:38:21;;;;;;;1.80;1.10;;;1.60;99.90;;;;;;5045591;28;20474;-78
2023/12/17 00:40:48;;;;;;;1.10;1.00;;;1.50;99.90;;;;;;5047706;28;20453;-79
2023/12/17 00:43:14;;;;;;;1.63;1.53;;;1.50;99.90;;;;;;5048837;28;20435;-79
2023/12/17 00:45:41;;;;;;;0.97;0.97;;;1.60;99.90;;;;;;5047852;28;20924;-79
2023/12/17 00:48:09;;;;;;;2.87;2.40;;;1.50;99.90;;;;;;5047969;28;20465;-79
2023/12/17 00:50:36;;;;;;;2.10;0.83;;;1.60;99.90;;;;;;5048929;28;20474;-79
2023/12/17 00:53:03;;;;;;;1.27;0.80;;;1.60;99.90;;;;;;5049410;28;20525;-79
2023/12/17 00:55:29;;;;;;;1.20;1.10;;;1.60;99.90;;;;;;5048597;28;20446;-79
2023/12/17 00:57:56;;;;;;;1.60;1.50;;;1.50;99.90;;;;;;5048477;28;20467;-79
2023/12/17 01:00:23;;;;;;;3.80;1.50;;;1.60;99.90;;;;;;5048162;28;20459;-79
2023/12/17 01:02:50;;;;;;;3.93;2.67;;;1.40;99.90;;;;;;5048440;28;20465;-80
2023/12/17 01:05:18;;;;;;;2.73;1.17;;;1.40;99.90;;;;;;5050516;28;20447;-80
2023/12/17 01:07:44;;;;;;;1.50;1.10;;;1.40;99.90;;;;;;5050893;28;20492;-80
2023/12/17 01:10:11;;;;;;;1.80;1.07;;;1.40;99.90;;;;;;5049272;28;20489;-79
2023/12/17 01:12:38;;;;;;;1.77;1.33;;;1.40;99.90;;;;;;5050926;28;20450;-79
2023/12/17 01:15:05;;;;;;;3.57;2.03;;;1.40;99.90;;;;;;5049636;28;20435;-79
2023/12/17 01:17:32;;;;;;;2.77;1.73;;;1.40;99.90;;;;;;5048019;28;20455;-79
2023/12/17 01:19:59;;;;;;;2.13;1.93;;;1.40;99.90;;;;;;5047698;28;20457;-79
2023/12/17 01:22:27;;;;;;;6.03;1.93;;;1.40;99.90;;;;;;5049387;28;20433;-78
2023/12/17 01:24:54;;;;;;;5.40;1.80;;;1.40;99.90;;;;;;5048120;28;20452;-79
2023/12/17 01:27:21;;;;;;;4.97;2.23;;;1.40;99.90;;;;;;5047926;28;20461;-79
2023/12/17 01:29:48;;;;;;;6.50;1.47;;;1.40;99.90;;;;;;5047725;28;20439;-79
2023/12/17 01:32:15;;;;;;;2.23;1.57;;;1.40;99.90;;;;;;5048813;28;20470;-79
2023/12/17 01:34:41;;;;;;;3.03;1.73;;;1.40;99.90;;;;;;5047631;28;20982;-79
2023/12/17 01:37:08;;;;;;;1.37;1.37;;;1.30;99.90;;;;;;5046602;28;20482;-79
2023/12/17 01:39:36;;;;;;;1.20;1.10;;;1.30;99.90;;;;;;5046770;28;20442;-79
2023/12/17 01:42:03;;;;;;;4.70;1.97;;;1.30;99.90;;;;;;5047387;28;20443;-80
2023/12/17 01:44:30;;;;;;;7.93;1.80;;;1.40;99.90;;;;;;5048735;28;20450;-79
2023/12/17 01:46:57;;;;;;;3.93;1.23;;;1.40;99.90;;;;;;5047217;28;20526;-79
2023/12/17 01:49:25;;;;;;;0.90;0.87;;;1.70;99.90;;;;;;5045682;28;20457;-80
2023/12/17 01:51:52;;;;;;;1.33;0.70;;;1.40;99.90;;;;;;5047492;28;20577;-79
2023/12/17 01:54:20;;;;;;;2.63;1.90;;;1.40;99.90;;;;;;5047429;28;20447;-79
2023/12/17 01:56:48;;;;;;;3.13;1.80;;;1.30;99.90;;;;;;5047723;28;20471;-79
2023/12/17 01:59:15;;;;;;;1.73;1.63;;;1.40;99.90;;;;;;5050991;28;20830;-80
2023/12/17 02:01:44;;;;;;;1.57;1.43;;;1.40;99.90;;;;;;5048457;28;20431;-79
2023/12/17 02:04:11;;;;;;;1.53;1.17;;;1.40;99.90;;;;;;5047487;28;20455;-79
2023/12/17 02:06:38;;;;;;;1.40;0.97;;;1.30;99.90;;;;;;5046630;28;20484;-79
2023/12/17 02:09:05;;;;;;;3.10;2.90;;;1.30;99.90;;;;;;5047824;28;20437;-79
2023/12/17 02:11:32;;;;;;;0.80;0.80;;;1.30;99.90;;;;;;5046549;28;20486;-79
2023/12/17 02:14:00;;;;;;;3.83;3.53;;;1.30;99.90;;;;;;5047262;28;20447;-79
2023/12/17 02:16:27;;;;;;;1.53;1.37;;;1.20;99.90;;;;;;5046733;28;20454;-79
2023/12/17 02:18:53;;;;;;;1.03;0.50;;;1.20;99.90;;;;;;5048083;28;20443;-79
2023/12/17 02:21:20;;;;;;;1.50;0.90;;;1.20;99.90;;;;;;5046965;28;20450;-79
2023/12/17 02:23:48;;;;;;;1.47;1.10;;;1.20;99.90;;;;;;5046692;28;20445;-79
2023/12/17 02:26:16;;;;;;;0.83;0.83;;;1.30;99.90;;;;;;5047099;28;20821;-79
2023/12/17 02:28:42;;;;;;;1.53;0.93;;;1.30;99.90;;;;;;5047054;28;20439;-79
2023/12/17 02:31:09;;;;;;;1.80;0.90;;;1.30;99.90;;;;;;5048061;28;20485;-78
2023/12/17 02:33:36;;;;;;;5.20;1.53;;;1.30;99.90;;;;;;5047679;28;20441;-79
2023/12/17 02:36:03;;;;;;;1.50;1.40;;;1.30;99.90;;;;;;5047882;28;20819;-80
2023/12/17 02:38:29;;;;;;;1.93;1.80;;;1.40;99.90;;;;;;5049308;28;20839;-79
2023/12/17 02:40:57;;;;;;;1.57;1.47;;;1.30;99.90;;;;;;5049393;28;20891;-79
2023/12/17 02:43:24;;;;;;;2.53;0.97;;;1.30;99.90;;;;;;5048231;28;20443;-79
2023/12/17 02:45:51;;;;;;;2.40;1.43;;;1.20;99.90;;;;;;5052048;28;20523;-79
2023/12/17 02:48:18;;;;;;;2.10;1.23;;;1.20;99.90;;;;;;5046842;28;20471;-79
2023/12/17 02:50:44;;;;;;;0.90;0.90;;;1.20;99.90;;;;;;5047566;28;20490;-79
2023/12/17 02:53:11;;;;;;;1.30;0.90;;;1.20;99.90;;;;;;5048708;28;20457;-79
2023/12/17 02:55:38;;;;;;;1.63;0.73;;;1.20;99.90;;;;;;5049670;28;20451;-79
2023/12/17 02:58:06;;;;;;;0.70;0.70;;;1.20;99.90;;;;;;5048226;28;20470;-79
2023/12/17 03:00:33;;;;;;;1.57;1.47;;;1.20;99.90;;;;;;5049048;28;20443;-79
2023/12/17 03:02:59;;;;;;;1.60;1.27;;;1.20;99.90;;;;;;5048649;28;20478;-80
2023/12/17 03:05:26;;;;;;;1.87;1.77;;;1.20;99.90;;;;;;5048227;28;20439;-78
2023/12/17 03:07:53;;;;;;;3.60;1.13;;;1.20;99.90;;;;;;5050162;28;20482;-79
2023/12/17 03:10:20;;;;;;;1.10;0.60;;;1.20;99.90;;;;;;5050345;28;20458;-78
2023/12/17 03:12:46;;;;;;;1.00;1.00;;;1.20;99.90;;;;;;5048171;28;20446;-79
2023/12/17 03:15:15;;;;;;;0.80;0.80;;;1.30;99.90;;;;;;5047391;28;20451;-79
2023/12/17 03:17:41;;;;;;;1.33;0.80;;;1.20;99.90;;;;;;5049734;28;20466;-79
2023/12/17 03:20:10;;;;;;;0.80;0.80;;;1.20;99.90;;;;;;5049857;28;20450;-79
2023/12/17 03:22:36;;;;;;;1.30;1.20;;;1.30;99.90;;;;;;5048065;28;20458;-79
2023/12/17 03:25:04;;;;;;;2.67;1.03;;;1.30;99.90;;;;;;5047901;28;20449;-79
2023/12/17 03:27:30;;;;;;;2.30;1.50;;;1.30;99.90;;;;;;5048018;28;20534;-80
2023/12/17 03:29:57;;;;;;;0.90;0.70;;;1.40;99.90;;;;;;5048463;28;20449;-79
2023/12/17 03:32:25;;;;;;;1.57;1.30;;;1.40;99.90;;;;;;5049043;28;20481;-79
2023/12/17 03:34:52;;;;;;;2.60;1.10;;;1.40;99.90;;;;;;5048677;28;20459;-79
2023/12/17 03:37:19;;;;;;;2.00;1.00;;;1.40;99.90;;;;;;5049263;28;20471;-80
2023/12/17 03:39:45;;;;;;;2.77;1.00;;;1.40;99.90;;;;;;5048648;28;20832;-79
2023/12/17 03:42:12;;;;;;;0.87;0.80;;;1.40;99.90;;;;;;5049440;28;20941;-79
2023/12/17 03:44:39;;;;;;;3.10;1.07;;;1.40;99.90;;;;;;5049631;28;20473;-79
2023/12/17 03:47:06;;;;;;;1.63;1.50;;;1.40;99.90;;;;;;5048851;28;20463;-79
2023/12/17 03:49:34;;;;;;;5.40;1.50;;;1.40;99.90;;;;;;5047252;28;20834;-79
2023/12/17 03:52:03;;;;;;;1.10;1.10;;;1.40;99.90;;;;;;5045571;28;20482;-79
2023/12/17 03:54:30;;;;;;;4.50;0.93;;;1.40;99.90;;;;;;5045279;28;20932;-79
2023/12/17 03:56:57;;;;;;;1.40;1.30;;;1.30;99.90;;;;;;5045738;28;20463;-79
2023/12/17 03:59:23;;;;;;;2.27;1.33;;;1.30;99.90;;;;;;5048330;28;20435;-79
2023/12/17 04:01:50;;;;;;;2.20;1.70;;;1.30;99.90;;;;;;5046149;28;20439;-79
2023/12/17 04:04:17;;;;;;;1.70;1.60;;;1.30;99.90;;;;;;5047288;28;20450;-79
2023/12/17 04:06:46;;;;;;;1.63;1.53;;;1.30;99.90;;;;;;5047578;28;20483;-80
2023/12/17 04:09:13;;;;;;;2.90;1.87;;;1.30;99.90;;;;;;5046209;28;20997;-78
2023/12/17 04:11:39;;;;;;;0.60;0.60;;;1.30;99.90;;;;;;5045915;28;20482;-79
2023/12/17 04:14:06;;;;;;;1.03;0.90;;;1.30;99.90;;;;;;5050783;28;20446;-79
2023/12/17 04:16:33;;;;;;;1.57;1.30;;;1.30;99.90;;;;;;5051698;28;20465;-79
2023/12/17 04:19:00;;;;;;;1.20;1.20;;;1.30;99.90;;;;;;5050339;28;20447;-79
2023/12/17 04:21:26;;;;;;;0.93;0.70;;;1.30;99.90;;;;;;5050275;28;20438;-79
2023/12/17 04:23:55;;;;;;;2.70;1.47;;;1.30;99.90;;;;;;5050406;28;20826;-79
2023/12/17 04:26:22;;;;;;;2.77;1.50;;;1.40;99.90;;;;;;5051280;28;20447;-79
2023/12/17 04:28:48;;;;;;;3.37;1.97;;;1.40;99.90;;;;;;5050924;28;20442;-79
2023/12/17 04:31:15;;;;;;;0.80;0.77;;;1.40;99.90;;;;;;5051175;28;20470;-79
2023/12/17 04:33:42;;;;;;;1.63;1.47;;;1.50;99.90;;;;;;5049107;28;20461;-79
2023/12/17 04:36:09;;;;;;;3.40;2.03;;;1.50;99.90;;;;;;5048503;28;20453;-79
2023/12/17 04:38:36;;;;;;;1.00;1.00;;;1.40;99.90;;;;;;5047566;28;20780;-79
2023/12/17 04:41:04;;;;;;;2.10;1.20;;;1.70;99.90;;;;;;5047582;28;20450;-79
2023/12/17 04:43:31;;;;;;;1.60;1.17;;;1.40;99.90;;;;;;5047245;28;20439;-79
2023/12/17 04:45:58;;;;;;;1.03;0.97;;;1.40;99.90;;;;;;5047172;28;20461;-79
2023/12/17 04:48:24;;;;;;;0.80;0.80;;;1.40;99.90;;;;;;5047949;28;20462;-79
2023/12/17 04:50:51;;;;;;;1.23;1.03;;;1.40;99.90;;;;;;5047971;28;20443;-79
2023/12/17 04:53:18;;;;;;;1.67;1.17;;;1.30;99.90;;;;;;5049235;28;21001;-80
2023/12/17 04:55:45;;;;;;;1.10;0.97;;;1.40;99.90;;;;;;5050547;28;20443;-79
2023/12/17 04:58:13;;;;;;;1.80;1.43;;;1.40;99.90;;;;;;5051369;28;20488;-79
2023/12/17 05:00:39;;;;;;;1.10;1.03;;;1.40;99.90;;;;;;5051513;28;20450;-79
2023/12/17 05:03:06;;;;;;;1.70;1.17;;;1.30;99.90;;;;;;5051197;28;20446;-79
2023/12/17 05:05:33;;;;;;;2.00;1.03;;;1.40;99.90;;;;;;5054017;28;20445;-78
2023/12/17 05:08:00;;;;;;;1.43;1.33;;;1.40;99.90;;;;;;5048882;28;20479;-79
2023/12/17 05:10:27;;;;;;;2.50;1.20;;;1.30;99.90;;;;;;5050181;28;20445;-79
2023/12/17 05:12:54;;;;;;;2.30;1.00;;;1.30;99.90;;;;;;5050105;28;20486;-79
2023/12/17 05:15:23;;;;;;;0.70;0.70;;;1.30;99.90;;;;;;5050539;28;20450;-79
2023/12/17 05:17:49;;;;;;;1.23;0.87;;;1.30;99.90;;;;;;5050348;28;20473;-79
2023/12/17 05:20:16;;;;;;;2.20;1.10;;;1.30;99.90;;;;;;5050673;28;20447;-79
2023/12/17 05:22:43;;;;;;;1.30;1.20;;;1.30;99.90;;;;;;5051604;28;20446;-79
2023/12/17 05:25:11;;;;;;;3.70;0.77;;;1.40;99.90;;;;;;5051100;28;20451;-79
2023/12/17 05:27:38;;;;;;;0.93;0.90;;;1.40;99.90;;;;;;5053078;28;20475;-80
2023/12/17 05:30:06;;;;;;;2.50;1.17;;;1.40;99.90;;;;;;5053795;28;20449;-80
2023/12/17 05:32:34;;;;;;;3.13;1.07;;;1.40;99.90;;;;;;5052331;28;20538;-79
2023/12/17 05:35:01;;;;;;;1.70;0.80;;;1.40;99.90;;;;;;5050301;28;20451;-79
2023/12/17 05:37:28;;;;;;;1.07;1.07;;;1.30;99.90;;;;;;5050559;28;20553;-79
2023/12/17 05:39:55;;;;;;;0.90;0.90;;;1.30;99.90;;;;;;5052079;28;20455;-79
2023/12/17 05:42:22;;;;;;;2.13;1.93;;;1.30;99.90;;;;;;5051660;28;20457;-79
2023/12/17 05:44:49;;;;;;;0.80;0.70;;;1.30;99.90;;;;;;5050309;28;20836;-79
2023/12/17 05:47:15;;;;;;;0.87;0.80;;;1.30;99.90;;;;;;5050763;28;20467;-80
2023/12/17 05:49:44;;;;;;;0.97;0.70;;;1.30;99.90;;;;;;5051151;28;20445;-79
2023/12/17 05:52:11;;;;;;;1.77;1.67;;;1.20;99.90;;;;;;5049924;28;20485;-80
2023/12/17 05:54:38;;;;;;;1.30;1.20;;;1.20;99.90;;;;;;5052324;28;20442;-79
2023/12/17 05:57:05;;;;;;;2.93;0.77;;;1.30;99.90;;;;;;5053224;28;21007;-79
2023/12/17 05:59:32;;;;;;;2.10;1.70;;;1.30;99.90;;;;;;5051589;28;20445;-79
2023/12/17 06:01:59;;;;;;;1.07;0.97;;;1.30;99.90;;;;;;5050268;28;20435;-79
2023/12/17 06:04:26;;;;;;;1.53;1.00;;;1.30;99.90;;;;;;5050167;28;20451;-79
2023/12/17 06:06:55;;;;;;;2.30;1.10;;;1.30;99.90;;;;;;5050059;28;20482;-80
2023/12/17 06:09:22;;;;;;;2.73;1.70;;;1.30;99.90;;;;;;5048526;28;20447;-79
2023/12/17 06:11:49;;;;;;;5.07;1.40;;;1.40;99.90;;;;;;5048502;28;20483;-79
2023/12/17 06:14:17;;;;;;;1.07;0.90;;;1.40;99.90;;;;;;5048083;28;21013;-80
2023/12/17 06:16:44;;;;;;;1.87;1.00;;;1.40;99.90;;;;;;5047958;28;20471;-80
2023/12/17 06:19:11;;;;;;;2.80;1.50;;;1.50;99.90;;;;;;5046731;28;20794;-79
2023/12/17 06:21:38;;;;;;;1.13;1.07;;;1.50;99.90;;;;;;5048364;28;20443;-79
2023/12/17 06:24:07;;;;;;;8.13;0.93;;;1.50;99.90;;;;;;5048282;28;20454;-79
2023/12/17 06:26:35;;;;;;;0.70;0.70;;;1.50;99.90;;;;;;5049247;28;20467;-80
2023/12/17 06:29:02;;;;;;;1.20;0.67;;;1.50;99.90;;;;;;5049189;28;20496;-79
2023/12/17 06:31:29;;;;;;;1.73;1.47;;;1.40;99.90;;;;;;5047780;28;20550;-79
2023/12/17 06:33:55;;;;;;;5.50;1.83;;;1.30;99.90;;;;;;5048775;28;20442;-79
2023/12/17 06:36:22;;;;;;;1.47;0.73;;;1.40;99.90;;;;;;5048616;28;20457;-80
2023/12/17 06:38:49;;;;;;;2.20;0.87;;;1.30;99.90;;;;;;5050902;28;20522;-79
2023/12/17 06:41:17;;;;;;;1.33;1.33;;;1.30;99.90;;;;;;5050296;28;20999;-79
2023/12/17 06:43:44;;;;;;;1.57;1.40;;;1.30;99.90;;;;;;5050018;28;20465;-79
2023/12/17 06:46:16;;;;;;;3.50;1.43;;;1.30;99.90;;;;;;5051986;28;20478;-80
2023/12/17 06:48:43;;;;;;;4.30;2.00;;;1.30;99.90;;;;;;5052442;28;20441;-79
2023/12/17 06:51:11;;;;;;;1.23;1.13;;;1.30;99.90;;;;;;5052699;28;20437;-79
2023/12/17 06:53:37;;;;;;;1.07;0.77;;;1.20;99.90;;;;;;5052902;28;20506;-79
2023/12/17 06:56:05;;;;;;;1.37;1.20;;;1.20;99.90;;;;;;5053336;28;20461;-80
2023/12/17 06:58:33;;;;;;;3.47;0.97;;;1.10;99.90;;;;;;5051851;28;20821;-79
2023/12/17 07:01:00;;;;;;;2.13;1.10;;;1.20;99.90;;;;;;5051168;28;20507;-79
2023/12/17 07:03:27;;;;;;;0.50;0.50;;;1.10;99.90;;;;;;5049881;28;20453;-79
2023/12/17 07:05:54;;;;;;;0.70;0.70;;;1.10;99.90;;;;;;5052397;28;20459;-79
2023/12/17 07:08:20;;;;;;;0.77;0.77;;;1.10;99.90;;;;;;5050680;28;20533;-80
2023/12/17 07:10:47;;;;;;;0.70;0.57;;;1.10;99.90;;;;;;5050926;28;20545;-80
2023/12/17 07:13:14;;;;;;;1.33;1.03;;;1.10;99.90;;;;;;5051894;28;20475;-79
2023/12/17 07:15:43;;;;;;;2.00;0.57;;;1.20;99.90;;;;;;5051611;28;20451;-79
2023/12/17 07:18:10;;;;;;;0.53;0.53;;;1.20;99.90;;;;;;5052910;28;20818;-80
2023/12/17 07:20:37;;;;;;;1.90;1.47;;;1.20;99.90;;;;;;5054482;28;20450;-80
2023/12/17 07:23:03;;;;;;;1.10;1.00;;;1.30;99.90;;;;;;5052144;28;20457;-79
2023/12/17 07:25:30;;;;;;;1.97;1.00;;;1.30;99.90;;;;;;5049024;28;20434;-79
2023/12/17 07:27:57;;;;;;;0.77;0.77;;;1.30;99.90;;;;;;5049072;28;20539;-79
2023/12/17 07:30:24;;;;;;;1.13;1.00;;;1.30;99.90;;;;;;5049542;28;20435;-79
2023/12/17 07:32:52;;;;;;;1.00;1.00;;;1.30;99.90;;;;;;5049401;28;20474;-79
2023/12/17 07:35:18;;;;;;;2.20;1.33;;;1.30;99.90;;;;;;5047365;28;20454;-80
2023/12/17 07:37:45;;;;;;;0.50;0.50;;;1.40;99.90;;;;;;5046297;28;20466;-80
2023/12/17 07:40:12;;;;;;;3.20;2.60;;;1.40;99.90;;;;;;5045954;28;20443;-80
2023/12/17 07:42:39;;;;;;;4.10;2.70;;;1.40;99.90;;;;;;5048727;28;20442;-80
2023/12/17 07:45:08;;;;;;;4.63;2.30;;;1.40;99.90;;;;;;5045860;28;20445;-79
2023/12/17 07:47:34;;;;;;;2.10;1.57;;;1.50;99.90;;;;;;5047685;28;20455;-79
2023/12/17 07:50:02;;;;;;;1.50;1.20;;;1.60;99.90;;;;;;5049431;28;20461;-79
2023/12/17 07:52:29;;;;;;;1.10;1.10;;;1.60;99.90;;;;;;5047438;28;20493;-79
2023/12/17 07:54:56;;;;;;;2.60;0.77;;;1.60;99.90;;;;;;5048732;28;20533;-80
2023/12/17 07:57:23;;;;;;;1.00;1.00;;;1.60;99.90;;;;;;5048100;28;20462;-80
2023/12/17 07:59:50;;;;;;;2.30;1.20;;;1.60;99.90;;;;;;5047418;28;20461;-80
2023/12/17 08:02:17;;;;;;;5.40;2.23;;;1.60;99.90;;;;;;5046779;28;20439;-79
2023/12/17 08:04:45;;;;;;;3.30;1.97;;;1.70;99.90;;;;;;5044949;28;20865;-80
2023/12/17 08:07:13;;;;;;;1.07;0.97;;;1.70;99.90;;;;;;5045496;28;20490;-80
2023/12/17 08:09:40;;;;;;;2.30;1.77;;;1.80;99.90;;;;;;5044752;28;20445;-81
2023/12/17 08:12:07;;;;;;;2.03;1.13;;;1.90;99.90;;;;;;5046029;28;20474;-79
2023/12/17 08:14:34;;;;;;;1.17;1.00;;;1.90;99.90;;;;;;5045963;28;20435;-80
2023/12/17 08:17:01;;;;;;;2.07;1.97;;;2.00;99.90;;;;;;5045100;28;20470;-80
2023/12/17 08:19:28;;;;;;;1.43;0.90;;;2.00;99.90;;;;;;5044766;28;20455;-79
2023/12/17 08:21:56;;;;;;;1.10;1.00;;;2.00;99.90;;;;;;5044623;28;20465;-79
2023/12/17 08:24:24;;;;;;;1.37;1.13;;;2.10;99.90;;;;;;5044201;28;20434;-80
2023/12/17 08:26:51;;;;;;;0.87;0.87;;;2.10;99.90;;;;;;5043990;28;20467;-80
2023/12/17 08:29:18;;;;;;;2.80;0.80;;;2.20;99.90;;;;;;5042769;28;20508;-79
2023/12/17 08:31:45;;;;;;;1.67;0.73;;;2.20;99.90;;;;;;5042002;28;20469;-80
2023/12/17 08:34:13;;;;;;;1.10;1.00;;;2.30;99.90;;;;;;5041972;28;20446;-79
2023/12/17 08:36:41;;;;;;;1.00;0.70;;;2.40;99.90;;;;;;5042450;28;20915;-80
2023/12/17 08:39:08;;;;;;;1.50;1.30;;;2.40;99.90;;;;;;5044254;28;20927;-80
2023/12/17 08:41:36;;;;;;;1.57;0.93;;;2.40;99.90;;;;;;5042945;28;20439;-79
2023/12/17 08:44:03;;;;;;;1.00;1.00;;;2.40;99.90;;;;;;5041827;28;20435;-80
2023/12/17 08:46:29;;;;;;;3.10;1.23;;;2.50;99.90;;;;;;5040651;28;20478;-79
2023/12/17 08:48:56;;;;;;;2.77;1.67;;;2.50;99.90;;;;;;5040359;28;20435;-80
2023/12/17 08:51:23;;;;;;;1.40;1.03;;;2.60;99.90;;;;;;5039437;28;20454;-80
2023/12/17 08:53:50;;;;;;;1.37;0.63;;;2.60;99.90;;;;;;5039392;28;20497;-81
2023/12/17 08:56:16;;;;;;;1.60;1.23;;;2.70;99.90;;;;;;5038652;28;20454;-81
2023/12/17 08:58:45;;;;;;;1.17;1.17;;;2.70;99.90;;;;;;5039436;28;20446;-80
2023/12/17 09:01:12;;;;;;;2.00;1.57;;;2.80;99.90;;;;;;5039193;28;20446;-80
2023/12/17 09:03:38;;;;;;;1.27;1.17;;;2.80;99.90;;;;;;5038520;28;20449;-79
2023/12/17 09:06:06;;;;;;;0.50;0.50;;;2.90;99.90;;;;;;5038467;28;20442;-81
2023/12/17 09:08:33;;;;;;;0.60;0.57;;;3.00;99.90;;;;;;5038473;28;20789;-80
2023/12/17 09:11:00;;;;;;;0.67;0.60;;;3.10;99.90;;;;;;5038314;28;20443;-79
2023/12/17 09:13:27;;;;;;;1.97;0.90;;;3.20;99.90;;;;;;5037861;28;20471;-79
2023/12/17 09:15:55;;;;;;;1.43;1.30;;;3.20;99.90;;;;;;5038017;28;20439;-80
2023/12/17 09:18:22;;;;;;;6.80;1.07;;;3.30;99.90;;;;;;5038144;28;20497;-81
2023/12/17 09:20:49;;;;;;;1.43;1.00;;;3.40;99.90;;;;;;5038016;28;20447;-80
2023/12/17 09:23:15;;;;;;;3.30;1.20;;;3.40;99.90;;;;;;5037917;28;20447;-80
2023/12/17 09:25:42;;;;;;;1.00;0.80;;;3.50;99.90;;;;;;5038266;28;20811;-80
2023/12/17 09:28:10;;;;;;;1.20;1.00;;;3.60;99.90;;;;;;5038112;28;20469;-81
2023/12/17 09:30:36;;;;;;;1.80;1.60;;;3.70;99.90;;;;;;5038018;28;20803;-80
2023/12/17 09:33:04;;;;;;;0.97;0.53;;;3.80;99.90;;;;;;5037854;28;20545;-81
2023/12/17 09:35:31;;;;;;;1.20;0.90;;;3.90;99.90;;;;;;5037539;28;20442;-81
2023/12/17 09:37:58;;;;;;;1.40;0.90;;;4.00;99.90;;;;;;5041176;28;20535;-81
2023/12/17 09:40:25;;;;;;;0.90;0.77;;;4.10;99.90;;;;;;5048058;28;20435;-81
2023/12/17 09:42:54;;;;;;;7.40;1.53;;;4.30;99.90;;;;;;5036983;28;20481;-81
2023/12/17 09:45:21;;;;;;;1.73;1.43;;;4.60;99.90;;;;;;5036263;28;20447;-81
2023/12/17 09:47:48;;;;;;;1.07;1.07;;;5.40;99.90;;;;;;5035944;28;20474;-83
2023/12/17 09:50:16;;;;;;;5.53;2.70;;;6.70;99.90;;;;;;5035623;28;20450;-82
2023/12/17 09:52:43;;;;;;;1.13;1.07;;;8.10;99.90;;;;;;5035248;28;20482;-84
2023/12/17 09:55:11;;;;;;;1.73;1.00;;;9.50;99.90;;;;;;5035124;28;20543;-84
2023/12/17 09:57:38;;;;;;;1.33;0.90;;;10.90;99.90;;;;;;5035054;28;20450;-84
2023/12/17 10:00:09;;;;;;;0.73;0.73;;;12.00;99.90;;;;;;5035624;28;20461;-81
2023/12/17 10:02:36;;;;;;;1.23;1.00;;;12.50;99.90;;;;;;5035643;28;20427;-82
2023/12/17 10:05:03;;;;;;;1.73;1.37;;;12.80;99.90;;;;;;5034902;28;20465;-80
2023/12/17 10:07:31;;;;;;;1.27;0.73;;;13.20;99.90;;;;;;5034819;28;20832;-81
2023/12/17 10:09:58;;;;;;;1.17;1.10;;;13.10;99.90;;;;;;5033968;28;20446;-81
2023/12/17 10:12:25;;;;;;;1.00;0.90;;;12.80;99.90;;;;;;5034490;28;20961;-81
2023/12/17 10:14:53;;;;;;;0.93;0.90;;;12.10;99.90;;;;;;5034360;28;20439;-81
2023/12/17 10:17:20;;;;;;;1.93;1.30;;;11.00;99.90;;;;;;5034557;28;20890;-81
2023/12/17 10:19:51;;;;;;;1.30;1.03;;;10.50;99.90;;;;;;5034304;28;20446;-81
2023/12/17 10:22:19;;;;;;;1.57;1.47;;;10.20;99.90;;;;;;5035260;28;20454;-82
2023/12/17 10:24:47;;;;;;;3.07;1.83;;;9.70;99.90;;;;;;5034319;28;20451;-82
2023/12/17 10:27:18;;;;;;;1.07;0.93;;;9.50;99.90;;;;;;5034169;28;20478;-82
2023/12/17 10:29:49;;;;;;;1.23;0.83;;;9.20;99.90;;;;;;5034370;28;20446;-82
2023/12/17 10:32:20;;;;;;;1.33;1.00;;;9.00;99.90;;;;;;5035138;28;20810;-82
2023/12/17 10:34:48;;;;;;;7.97;1.43;;;8.90;99.90;;;;;;5033975;28;20478;-82
2023/12/17 10:37:17;;;;;;;1.63;0.70;;;8.80;99.90;;;;;;5034555;28;20830;-81
2023/12/17 10:39:49;;;;;;;0.70;0.70;;;8.50;99.90;;;;;;5034005;28;20447;-81
2023/12/17 10:42:17;;;;;;;1.00;0.90;;;8.20;99.90;;;;;;5034288;28;20780;-81
2023/12/17 10:44:46;;;;;;;0.83;0.60;;;8.00;99.90;;;;;;5034599;28;20837;-81
2023/12/17 10:47:14;;;;;;;1.37;1.10;;;7.90;99.90;;;;;;5035675;28;20836;-81
2023/12/17 10:49:42;;;;;;;1.20;1.10;;;7.90;99.90;;;;;;5035345;28;20940;-81
2023/12/17 10:52:09;;;;;;;1.07;0.70;;;7.80;99.90;;;;;;5035519;28;20423;-81
2023/12/17 10:54:35;;;;;;;0.63;0.63;;;7.70;99.90;;;;;;5035464;28;20498;-80
2023/12/17 10:57:05;;;;;;;0.70;0.70;;;7.60;99.90;;;;;;5035276;28;20463;-80
2023/12/17 10:59:36;;;;;;;0.67;0.67;;;7.50;99.90;;;;;;5035412;28;20454;-80
2023/12/17 11:02:05;;;;;;;1.23;0.70;;;7.50;99.90;;;;;;5035431;28;20951;-81
2023/12/17 11:04:32;;;;;;;1.03;0.73;;;7.50;99.90;;;;;;5035349;28;20453;-80
2023/12/17 11:06:58;;;;;;;0.70;0.60;;;7.50;99.90;;;;;;5034461;28;20470;-80
2023/12/17 11:09:25;;;;;;;0.63;0.57;;;7.60;99.90;;;;;;5034460;28;20451;-80
2023/12/17 11:11:53;;;;;;;1.33;1.00;;;7.60;99.90;;;;;;5034143;28;20947;-81
2023/12/17 11:14:21;;;;;;;1.67;0.70;;;7.50;99.90;;;;;;5034735;28;20478;-80
2023/12/17 11:16:48;;;;;;;1.57;0.77;;;7.60;99.90;;;;;;5034112;28;20469;-80
2023/12/17 11:19:14;;;;;;;0.70;0.70;;;7.60;99.90;;;;;;5035800;28;20449;-81
2023/12/17 11:21:42;;;;;;;0.67;0.67;;;7.60;99.90;;;;;;5034631;28;20438;-82
2023/12/17 11:24:09;;;;;;;0.60;0.60;;;7.60;99.90;;;;;;5035188;28;20446;-81
2023/12/17 11:26:41;;;;;;;0.50;0.50;;;7.60;99.90;;;;;;5034386;28;20467;-82
2023/12/17 11:29:33;;;;;;;2.67;0.93;;;7.50;99.90;;;;;;5034156;28;20474;-82
2023/12/17 11:32:01;;;;;;;1.83;0.80;;;7.50;99.90;;;;;;5034048;28;20442;-82
2023/12/17 11:34:29;;;;;;;1.17;0.80;;;7.50;99.90;;;;;;5033407;28;20482;-82
2023/12/17 11:36:57;;;;;;;0.50;0.50;;;7.50;99.90;;;;;;5033617;28;20470;-81
2023/12/17 11:39:24;;;;;;;0.70;0.67;;;7.50;99.90;;;;;;5033535;28;20449;-82
2023/12/17 11:41:51;;;;;;;1.30;0.70;;;7.60;99.90;;;;;;5033345;28;20431;-82
2023/12/17 11:44:18;;;;;;;0.43;0.43;;;7.50;99.90;;;;;;5033734;28;20438;-82
2023/12/17 11:46:48;;;;;;;0.50;0.40;;;7.50;99.90;;;;;;5033660;28;20467;-82
2023/12/17 11:49:22;;;;;;;1.23;1.00;;;7.50;99.90;;;;;;5033536;28;20431;-82
2023/12/17 11:51:49;;;;;;;0.50;0.50;;;7.50;99.90;;;;;;5035147;28;20423;-79
2023/12/17 11:54:18;;;;;;;1.00;0.67;;;7.50;99.90;;;;;;5037541;28;20850;-82
2023/12/17 11:56:45;;;;;;;1.07;0.63;;;7.40;99.90;;;;;;5033140;28;20459;-82
2023/12/17 11:59:12;;;;;;;0.50;0.50;;;7.40;99.90;;;;;;5033021;28;20443;-82
2023/12/17 12:01:39;;;;;;;0.70;0.70;;;7.40;99.90;;;;;;5033189;28;20955;-82
2023/12/17 12:04:07;;;;;;;0.70;0.47;;;7.30;99.90;;;;;;5033244;28;20445;-82
2023/12/17 12:06:34;;;;;;;0.70;0.60;;;7.20;99.90;;;;;;5033038;28;20474;-82
2023/12/17 12:09:02;;;;;;;0.80;0.60;;;7.20;99.90;;;;;;5033300;28;20455;-82
2023/12/17 12:11:33;;;;;;;0.67;0.60;;;7.20;99.90;;;;;;5033500;28;20442;-82
2023/12/17 12:14:00;;;;;;;0.50;0.50;;;7.20;99.90;;;;;;5033353;28;20490;-83
2023/12/17 12:16:28;;;;;;;0.80;0.50;;;7.10;99.90;;;;;;5032962;28;20470;-82
2023/12/17 12:19:02;;;;;;;1.13;0.50;;;7.20;99.90;;;;;;5033037;28;20442;-81
2023/12/17 12:21:30;;;;;;;0.40;0.40;;;7.10;99.90;;;;;;5033014;28;20496;-82
2023/12/17 12:23:59;;;;;;;0.50;0.50;;;7.10;99.90;;;;;;5033220;28;20880;-82
2023/12/17 12:26:26;;;;;;;1.37;1.23;;;7.10;99.90;;;;;;5033186;28;20471;-82
2023/12/17 12:28:56;;;;;;;0.90;0.63;;;7.00;99.90;;;;;;5033053;28;20447;-82
2023/12/17 12:31:24;;;;;;;0.40;0.40;;;7.10;99.90;;;;;;5033261;28;20457;-82
2023/12/17 12:33:54;;;;;;;0.50;0.50;;;7.10;99.90;;;;;;5034844;28;20490;-82
2023/12/17 12:36:22;;;;;;;1.17;1.07;;;7.10;99.90;;;;;;5036597;28;20446;-81
2023/12/17 12:39:05;;;;;;;1.43;0.70;;;7.10;99.90;;;;;;5036935;28;20446;-82
2023/12/17 12:41:32;;;;;;;1.17;0.63;;;7.10;99.90;;;;;;5035425;28;20497;-82
2023/12/17 12:44:01;;;;;;;1.00;0.70;;;7.10;99.90;;;;;;5036668;28;20438;-81
2023/12/17 12:46:28;;;;;;;1.23;0.50;;;7.10;99.90;;;;;;5036654;28;20458;-82
2023/12/17 12:48:56;;;;;;;0.47;0.47;;;7.10;99.90;;;;;;5036674;28;20469;-82
2023/12/17 12:51:23;;;;;;;1.37;0.53;;;7.10;99.90;;;;;;5036333;28;20462;-82
2023/12/17 12:53:50;;;;;;;0.50;0.50;;;7.00;99.90;;;;;;5036169;28;20482;-81
2023/12/17 12:56:19;;;;;;;0.40;0.40;;;7.00;99.90;;;;;;5036182;28;20458;-81
2023/12/17 12:58:46;;;;;;;1.80;0.60;;;7.00;99.90;;;;;;5036923;28;20993;-81